Dammeron Valley, UT (84783)

3:26 PM MST on February 05, 2016 (GMT -0700)
Veyo - 18Miles NW of St. George Utah at 4500 Ft. | | Change Station
CLOSE
Current Station
Personal Weather Station
Location: Veyo, UT
Elevation: 4564 ft
Nearby Weather Stations

Elev 4564 ft 37.35 °N, 113.70 °W | Updated 1 minute ago

Clear
Clear
43.2 °F
Feels Like 36 °F
N
15.0
Wind Variable Wind from North
Gusts 18.0 mph

Today
High -- | Low -- °F
--% Chance of Precip.
Yesterday
High -- | Low -- °F
Precip. -- in
Pressure 30.47 in
Visibility 10.0 miles
Clouds Clear
Windchill 36 °F
Dew Point 22 °F
Humidity 43%
Rainfall 0.00 in
Snow Depth Not available.
7:34 AM 6:03 PM
Waning Crescent, 9% visible
METAR KSGU 052215Z 00000KT 10SM CLR 12/M04 A3047 RMK AO1
Pressure 30.47 in
Visibility 10.0 miles
Clouds Clear
Windchill 36 °F
Dew Point 22 °F
Humidity 43%
Rainfall 0.00 in
Snow Depth Not available.
7:34 AM 6:03 PM
Waning Crescent, 9% visible
METAR KSGU 052215Z 00000KT 10SM CLR 12/M04 A3047 RMK AO1

10-Day Weather Forecast

Almanac

Astronomy

Feb. 05, 2016 Rise Set
Actual Time
Civil Twilight
Nautical Twilight
Astronomical Twilight
Moon
Length of Visible Light
Length of Day
Tomorrow will be .
, % of the Moon is Illuminated

Today's Extremes

State Highs State Lows

Community

WunderPhotos

Upload Photos

1,890,878 photos uploaded!

WunderBlog® & News

Nearby

Air Quality

  Air Quality AQ Index Pollutant
Not available.

Snow Depth

Station Depth Elevation

Earthquake Activity

City Distance Mag. Time & Date
Minimum magnitude displayed is 2.5.

Coastal Water Temperatures

Place Temperature

Stations

Nearby Weather Stations

Station Location Temp. Windchill Dew Point Humidity Wind Precip. Elev Updated Type
                   

Watches & Warnings

There are currently no watches in effect.